Whitelaw, Wisconsin
Current Conditions -  °F | °C
As of 4:56 PM on Friday 28 Nov 2014 (Local Time) from KMTW Reporting Station
Unknown Precip Unknown Precip  
Wind Chill: 21°   Ceiling: 2900
Heat Index: 31°   Visibility: 10mi
Dew Point: 27°   Wind: 13mph
Humidity: 85%   Direction: 220°SW
Pressure: 29.96"   Gusts: NA
Location:  44.14°N, 87.82°W
Report Text: KMTW 282256Z AUTO 22011KT 10SM UP FEW019 OVC029 M01/M03 A2996 RMK AO2 SLP168 P0000 T10061028 FZRANO
Loading
Personal Weather Stations






























Interactive Weather Map New forecast layout! Learn more

10-Day Weather Forecast

Advertisements
Track Severe Weather on mobile